Time;durP1;ratioP1;P1;durP2;ratioP2;P2;SDS_P1;SDS_P2;PMS_P1;PMS_P2;Temp;Humidity;BMP_temperature;BMP_pressure;BME280_temperature;BME280_humidity;BME280_pressure;Samples;Min_cycle;Max_cycle;Signal;HPM_P1;HPM_P2
2022/05/02 00:01:24;;;;;;;6.40;4.63;;;10.90;99.90;;;;;;5094802;28;20172;-69
2022/05/02 00:03:49;;;;;;;3.37;2.90;;;10.90;99.90;;;;;;5093051;28;20173;-68
2022/05/02 00:06:14;;;;;;;3.37;2.40;;;10.90;99.90;;;;;;5093206;28;20184;-69
2022/05/02 00:08:40;;;;;;;5.10;3.30;;;10.90;99.90;;;;;;5093895;28;20212;-68
2022/05/02 00:11:05;;;;;;;2.80;2.50;;;10.90;99.90;;;;;;5093312;28;20177;-69
2022/05/02 00:13:31;;;;;;;4.43;2.40;;;10.90;99.90;;;;;;5093652;28;20220;-69
2022/05/02 00:15:57;;;;;;;2.60;2.40;;;10.90;99.90;;;;;;5093504;28;20174;-68
2022/05/02 00:18:22;;;;;;;2.13;2.03;;;10.80;99.90;;;;;;5074917;28;20779;-69
2022/05/02 00:20:48;;;;;;;3.53;2.57;;;10.80;99.90;;;;;;5093423;28;20177;-69
2022/05/02 00:23:14;;;;;;;2.43;2.23;;;10.80;99.90;;;;;;5092981;28;20170;-68
2022/05/02 00:25:39;;;;;;;4.37;2.13;;;10.80;99.90;;;;;;5093576;28;20571;-69
2022/05/02 00:28:05;;;;;;;3.37;2.80;;;10.80;99.90;;;;;;5092806;28;20243;-69
2022/05/02 00:30:31;;;;;;;4.93;4.17;;;10.80;99.90;;;;;;5093213;28;20182;-69
2022/05/02 00:32:57;;;;;;;3.77;2.73;;;10.80;99.90;;;;;;5093257;28;20508;-68
2022/05/02 00:35:24;;;;;;;2.90;2.50;;;10.80;99.90;;;;;;5087926;28;20178;-69
2022/05/02 00:37:49;;;;;;;2.73;2.53;;;10.80;99.90;;;;;;5072711;28;20438;-68
2022/05/02 00:40:17;;;;;;;2.27;2.00;;;10.80;99.90;;;;;;5074022;28;20446;-68
2022/05/02 00:42:44;;;;;;;3.80;2.03;;;10.80;99.90;;;;;;5074008;28;20724;-69
2022/05/02 00:45:11;;;;;;;4.17;2.97;;;10.80;99.90;;;;;;5074248;28;20557;-69
2022/05/02 00:47:37;;;;;;;2.60;2.37;;;10.80;99.90;;;;;;5073356;28;20474;-69
2022/05/02 00:50:04;;;;;;;2.73;1.97;;;10.80;99.90;;;;;;5073116;28;20405;-69
2022/05/02 00:52:29;;;;;;;3.03;2.20;;;10.80;99.90;;;;;;5072533;28;20204;-69
2022/05/02 00:54:55;;;;;;;3.07;2.50;;;10.70;99.90;;;;;;5072468;28;20444;-69
2022/05/02 00:57:21;;;;;;;2.93;2.17;;;10.70;99.90;;;;;;5072570;28;20340;-69
2022/05/02 00:59:46;;;;;;;3.50;3.30;;;10.70;99.90;;;;;;5072701;28;20181;-69
2022/05/02 01:02:14;;;;;;;2.00;1.90;;;10.70;99.90;;;;;;5072244;28;20876;-70
2022/05/02 01:04:40;;;;;;;5.27;3.47;;;10.60;99.90;;;;;;5071988;28;20651;-69
2022/05/02 01:07:20;;;;;;;3.30;3.00;;;10.60;99.90;;;;;;5072260;28;20413;-69
2022/05/02 01:09:48;;;;;;;2.40;2.20;;;10.60;99.90;;;;;;5054271;28;20170;-68
2022/05/02 01:12:21;;;;;;;3.73;2.20;;;10.50;99.90;;;;;;5072103;28;20405;-68
2022/05/02 01:14:48;;;;;;;2.67;2.47;;;10.50;99.90;;;;;;5072242;28;20420;-69
2022/05/02 01:17:14;;;;;;;2.87;2.60;;;10.40;99.90;;;;;;5072034;28;20439;-69
2022/05/02 01:19:41;;;;;;;3.43;3.13;;;10.40;99.90;;;;;;5072179;28;20488;-69
2022/05/02 01:22:07;;;;;;;3.17;2.53;;;10.30;99.90;;;;;;5072043;28;20404;-69
2022/05/02 01:24:36;;;;;;;4.17;2.53;;;10.30;99.90;;;;;;5072048;28;20761;-69
2022/05/02 01:27:01;;;;;;;4.43;2.20;;;10.30;99.90;;;;;;5071909;28;20450;-69
2022/05/02 01:29:27;;;;;;;2.23;2.03;;;10.20;99.90;;;;;;5072163;28;20408;-69
2022/05/02 01:31:54;;;;;;;2.60;2.40;;;10.20;99.90;;;;;;5072835;28;20191;-69
2022/05/02 01:34:20;;;;;;;1.97;1.77;;;10.10;99.90;;;;;;5092415;28;20203;-69
2022/05/02 01:36:46;;;;;;;3.43;2.47;;;10.00;99.90;;;;;;5077091;28;20965;-69
2022/05/02 01:39:11;;;;;;;4.43;3.10;;;10.00;99.90;;;;;;5072493;28;20192;-69
2022/05/02 01:41:37;;;;;;;2.57;2.37;;;9.90;99.90;;;;;;5078852;28;20185;-70
2022/05/02 01:44:02;;;;;;;3.17;2.23;;;9.90;99.90;;;;;;5094048;28;20177;-69
2022/05/02 01:46:28;;;;;;;2.47;1.90;;;9.80;99.90;;;;;;5091674;28;20711;-70
2022/05/02 01:48:55;;;;;;;3.63;2.33;;;9.70;99.90;;;;;;5094403;28;20699;-69
2022/05/02 01:51:21;;;;;;;2.60;2.30;;;9.70;99.90;;;;;;5092781;28;20177;-69
2022/05/02 01:53:47;;;;;;;2.57;2.20;;;9.70;99.90;;;;;;5074735;28;20461;-69
2022/05/02 01:56:12;;;;;;;4.20;3.30;;;9.60;99.90;;;;;;5094374;28;20244;-69
2022/05/02 01:58:37;;;;;;;2.60;2.13;;;9.60;99.90;;;;;;5095937;28;20565;-69
2022/05/02 02:01:03;;;;;;;2.40;2.17;;;9.60;99.90;;;;;;5095775;28;20174;-69
2022/05/02 02:03:29;;;;;;;2.10;1.90;;;9.60;99.90;;;;;;5095606;28;20170;-70
2022/05/02 02:05:54;;;;;;;3.73;2.87;;;9.50;99.90;;;;;;5096307;28;20636;-69
2022/05/02 02:08:25;;;;;;;2.10;1.83;;;9.50;99.90;;;;;;5095636;28;20193;-69
2022/05/02 02:10:53;;;;;;;2.50;1.90;;;9.40;99.90;;;;;;5095645;28;20252;-69
2022/05/02 02:13:19;;;;;;;2.87;2.17;;;9.30;99.90;;;;;;5077280;28;20461;-69
2022/05/02 02:15:45;;;;;;;2.47;2.10;;;9.30;99.90;;;;;;5095288;28;20483;-69
2022/05/02 02:18:11;;;;;;;3.33;2.50;;;9.20;99.90;;;;;;5095143;28;20459;-69
2022/05/02 02:20:37;;;;;;;1.90;1.60;;;9.20;99.90;;;;;;5095663;28;20413;-68
2022/05/02 02:23:04;;;;;;;2.07;1.90;;;9.20;99.90;;;;;;5095533;28;20418;-67
2022/05/02 02:25:30;;;;;;;3.33;2.13;;;9.20;99.90;;;;;;5095173;28;20181;-69
2022/05/02 02:27:55;;;;;;;1.90;1.80;;;9.10;99.90;;;;;;5095399;28;20424;-70
2022/05/02 02:30:21;;;;;;;3.07;2.00;;;9.20;99.90;;;;;;5095491;28;20544;-69
2022/05/02 02:32:46;;;;;;;3.10;2.77;;;9.20;99.90;;;;;;5096028;28;20209;-70
2022/05/02 02:35:12;;;;;;;2.43;2.00;;;9.20;99.90;;;;;;5098971;28;20224;-70
2022/05/02 02:37:38;;;;;;;2.17;1.77;;;9.10;99.90;;;;;;5099781;28;20189;-70
2022/05/02 02:40:04;;;;;;;2.87;2.30;;;9.10;99.90;;;;;;5097307;28;20169;-69
2022/05/02 02:42:30;;;;;;;3.47;1.90;;;9.10;99.90;;;;;;5095300;28;20410;-69
2022/05/02 02:44:55;;;;;;;2.37;2.10;;;9.10;99.90;;;;;;5094797;28;20412;-69
2022/05/02 02:47:21;;;;;;;2.50;2.30;;;9.00;99.90;;;;;;5094943;28;20229;-69
2022/05/02 02:49:46;;;;;;;3.07;2.23;;;9.00;99.90;;;;;;5095563;28;20174;-70
2022/05/02 02:52:12;;;;;;;4.20;2.80;;;9.00;99.90;;;;;;5094720;28;20658;-69
2022/05/02 02:54:37;;;;;;;2.43;2.23;;;8.90;99.90;;;;;;5094960;28;20177;-69
2022/05/02 02:57:03;;;;;;;2.57;2.13;;;8.90;99.90;;;;;;5094941;28;20166;-69
2022/05/02 02:59:28;;;;;;;2.43;2.20;;;8.80;99.90;;;;;;5094954;28;20165;-69
2022/05/02 03:01:56;;;;;;;2.03;1.87;;;8.80;99.90;;;;;;5094624;28;20227;-69
2022/05/02 03:07:07;;;;;;;2.40;1.80;;;8.70;99.90;;;;;;5095303;28;20460;-70
2022/05/02 03:09:33;;;;;;;2.47;2.00;;;8.70;99.90;;;;;;5095307;28;20407;-69
2022/05/02 03:11:59;;;;;;;2.37;2.17;;;8.60;99.90;;;;;;5095031;28;20408;-69
2022/05/02 03:14:24;;;;;;;2.60;1.87;;;8.60;99.90;;;;;;5094020;28;20293;-69
2022/05/02 03:16:50;;;;;;;3.17;2.37;;;8.60;99.90;;;;;;5094424;28;20173;-69
2022/05/02 03:19:15;;;;;;;2.40;2.20;;;8.60;99.90;;;;;;5094047;28;20683;-69
2022/05/02 03:21:41;;;;;;;3.43;2.00;;;8.60;99.90;;;;;;5094435;28;20166;-69
2022/05/02 03:24:07;;;;;;;5.20;2.47;;;8.50;99.90;;;;;;5094503;28;20174;-70
2022/05/02 03:26:32;;;;;;;4.07;2.40;;;8.50;99.90;;;;;;5094282;28;20174;-69
2022/05/02 03:28:57;;;;;;;5.27;4.23;;;8.50;99.90;;;;;;5094900;28;20427;-69
2022/05/02 03:31:23;;;;;;;3.67;2.43;;;8.50;99.90;;;;;;5094100;28;20178;-69
2022/05/02 03:33:48;;;;;;;2.83;2.13;;;8.40;99.90;;;;;;5095470;28;20197;-68
2022/05/02 03:36:14;;;;;;;4.27;3.27;;;8.40;99.90;;;;;;5100795;28;20570;-69
2022/05/02 03:38:39;;;;;;;2.50;2.07;;;8.40;99.90;;;;;;5076165;28;20561;-69
2022/05/02 03:41:05;;;;;;;3.90;2.83;;;8.40;99.90;;;;;;5093827;28;20165;-69
2022/05/02 03:43:32;;;;;;;3.60;2.60;;;8.40;99.90;;;;;;5094013;28;20215;-69
2022/05/02 03:45:57;;;;;;;4.30;2.70;;;8.30;99.90;;;;;;5093479;28;20192;-69
2022/05/02 03:48:22;;;;;;;2.57;2.37;;;8.30;99.90;;;;;;5093568;28;20428;-69
2022/05/02 03:50:48;;;;;;;3.10;2.80;;;8.30;99.90;;;;;;5093816;28;20674;-70
2022/05/02 03:53:17;;;;;;;2.07;1.90;;;8.30;99.90;;;;;;5093577;28;20676;-70
2022/05/02 03:55:43;;;;;;;2.50;2.30;;;8.40;99.90;;;;;;5093217;28;20158;-68
2022/05/02 03:58:09;;;;;;;6.03;2.40;;;8.40;99.90;;;;;;5093448;28;20424;-68
2022/05/02 04:00:35;;;;;;;1.80;1.70;;;8.30;99.90;;;;;;5093357;28;20174;-68
2022/05/02 04:03:00;;;;;;;1.93;1.80;;;8.30;99.90;;;;;;5093624;28;20429;-69
2022/05/02 04:05:26;;;;;;;5.10;2.87;;;8.40;99.90;;;;;;5093274;28;20495;-68
2022/05/02 04:07:52;;;;;;;5.33;2.87;;;8.40;99.90;;;;;;5093374;28;20616;-69
2022/05/02 04:10:17;;;;;;;2.27;1.97;;;8.40;99.90;;;;;;5093169;28;20206;-69
2022/05/02 04:12:43;;;;;;;2.30;2.03;;;8.50;99.90;;;;;;5093492;28;20250;-68
2022/05/02 04:15:09;;;;;;;3.03;2.00;;;8.50;99.90;;;;;;5092924;28;20536;-69
2022/05/02 04:17:35;;;;;;;2.67;2.43;;;8.50;99.90;;;;;;5092937;28;20212;-68
2022/05/02 04:20:01;;;;;;;3.40;2.40;;;8.50;99.90;;;;;;5092543;28;20408;-69
2022/05/02 04:22:27;;;;;;;3.57;2.70;;;8.60;99.90;;;;;;5092824;28;20483;-68
2022/05/02 04:24:52;;;;;;;3.53;2.37;;;8.60;99.90;;;;;;5092869;28;20437;-68
2022/05/02 04:27:17;;;;;;;3.00;2.30;;;8.60;99.90;;;;;;5092687;28;20240;-69
2022/05/02 04:29:43;;;;;;;2.60;2.40;;;8.60;99.90;;;;;;5092768;28;20166;-68
2022/05/02 04:32:08;;;;;;;5.37;3.23;;;8.60;99.90;;;;;;5092754;28;20212;-68
2022/05/02 04:34:34;;;;;;;5.63;2.57;;;8.60;99.90;;;;;;5092524;28;20198;-68
2022/05/02 04:36:59;;;;;;;3.33;2.53;;;8.60;99.90;;;;;;5092825;28;20263;-68
2022/05/02 04:39:25;;;;;;;4.00;2.70;;;8.60;99.90;;;;;;5092962;28;20210;-69
2022/05/02 04:41:50;;;;;;;4.00;2.20;;;8.70;99.90;;;;;;5092966;28;20166;-68
2022/05/02 04:44:16;;;;;;;2.07;1.97;;;8.80;99.90;;;;;;5093075;28;20173;-68
2022/05/02 04:46:41;;;;;;;2.97;2.70;;;8.90;99.90;;;;;;5093317;28;20177;-68
2022/05/02 04:49:07;;;;;;;2.60;2.40;;;8.90;99.90;;;;;;5093395;28;20275;-68
2022/05/02 04:51:32;;;;;;;4.53;2.53;;;9.00;99.90;;;;;;5092839;28;20190;-69
2022/05/02 04:53:58;;;;;;;3.07;2.87;;;9.00;99.90;;;;;;5092295;28;20236;-70
2022/05/02 04:56:24;;;;;;;3.43;3.10;;;9.10;99.90;;;;;;5092467;28;20203;-70
2022/05/02 04:58:50;;;;;;;3.53;2.83;;;9.10;99.90;;;;;;5092642;28;20197;-68
2022/05/02 05:01:15;;;;;;;2.70;2.47;;;9.20;99.90;;;;;;5092928;28;20399;-68
2022/05/02 05:03:41;;;;;;;4.73;3.10;;;9.30;99.90;;;;;;5092723;28;20167;-70
2022/05/02 05:06:06;;;;;;;4.03;3.50;;;9.30;99.90;;;;;;5092616;28;20182;-68
2022/05/02 05:08:32;;;;;;;2.40;2.23;;;9.40;99.90;;;;;;5092646;28;20224;-70
2022/05/02 05:11:07;;;;;;;2.57;2.37;;;9.50;99.90;;;;;;5091306;28;20659;-69
2022/05/02 05:13:43;;;;;;;3.00;2.70;;;9.60;99.90;;;;;;5092245;28;20193;-68
2022/05/02 05:16:37;;;;;;;3.63;3.33;;;9.60;99.90;;;;;;5092436;28;20437;-69
2022/05/02 05:19:11;;;;;;;3.53;2.50;;;9.90;99.90;;;;;;5094846;22;20498;-69
2022/05/02 05:21:59;;;;;;;5.20;2.83;;;10.00;99.90;;;;;;5065648;28;21018;-69
2022/05/02 05:24:47;;;;;;;3.27;3.07;;;10.50;99.90;;;;;;5071522;28;20412;-70
2022/05/02 05:27:19;;;;;;;2.90;2.70;;;10.90;99.90;;;;;;5071561;28;20396;-70
2022/05/02 05:30:06;;;;;;;4.30;3.27;;;11.10;99.90;;;;;;5071387;28;20416;-71
2022/05/02 05:33:01;;;;;;;3.47;2.93;;;11.30;99.90;;;;;;5075124;28;20408;-71
2022/05/02 05:35:57;;;;;;;4.77;2.80;;;11.70;99.90;;;;;;5075638;28;20508;-71
2022/05/02 05:39:08;;;;;;;5.27;2.77;;;12.50;99.90;;;;;;5075874;28;20419;-72
2022/05/02 05:41:54;;;;;;;3.53;2.50;;;13.20;99.90;;;;;;4993704;28;20427;-71
2022/05/02 05:44:42;;;;;;;2.90;2.60;;;13.80;99.90;;;;;;4977738;28;20883;-71
2022/05/02 05:47:41;;;;;;;3.07;2.77;;;13.70;99.90;;;;;;5054788;28;20424;-71
2022/05/02 05:50:21;;;;;;;6.43;3.03;;;13.70;99.90;;;;;;5069387;28;20418;-71
2022/05/02 05:53:05;;;;;;;3.10;2.80;;;12.80;99.90;;;;;;5055318;28;20544;-71
2022/05/02 05:55:45;;;;;;;3.53;2.87;;;13.20;99.90;;;;;;5055068;28;20464;-71
2022/05/02 05:58:20;;;;;;;5.07;3.10;;;13.30;99.90;;;;;;5059583;28;20455;-72
2022/05/02 06:00:50;;;;;;;3.10;2.83;;;13.50;99.90;;;;;;5065208;28;20431;-70
2022/05/02 06:03:23;;;;;;;3.47;2.80;;;13.40;99.90;;;;;;5056934;28;20456;-70
2022/05/02 06:05:49;;;;;;;6.03;2.90;;;13.40;99.90;;;;;;5060247;28;20744;-70
2022/05/02 06:08:17;;;;;;;3.77;3.00;;;13.40;99.90;;;;;;5059721;28;20452;-71
2022/05/02 06:10:44;;;;;;;3.90;3.07;;;13.60;99.90;;;;;;5075061;28;20171;-71
2022/05/02 06:13:09;;;;;;;3.40;2.87;;;13.50;99.90;;;;;;5074742;28;20457;-70
2022/05/02 06:18:30;;;;;;;3.40;2.60;;;14.00;99.90;;;;;;5054920;28;20266;-71
2022/05/02 06:21:01;;;;;;;4.13;3.07;;;14.80;99.90;;;;;;5069935;28;20416;-70
2022/05/02 06:23:31;;;;;;;2.80;2.60;;;14.90;99.90;;;;;;5074195;28;20546;-70
2022/05/02 06:25:57;;;;;;;3.63;2.90;;;15.90;97.30;;;;;;5086575;28;20938;-70
2022/05/02 06:28:30;;;;;;;3.00;2.60;;;15.90;96.10;;;;;;5094887;28;20516;-72
2022/05/02 06:30:59;;;;;;;3.60;2.37;;;16.90;93.00;;;;;;5094957;28;20201;-71
2022/05/02 06:33:25;;;;;;;3.13;2.83;;;17.50;91.70;;;;;;5062049;28;20463;-69
2022/05/02 06:36:14;;;;;;;2.50;2.30;;;16.60;91.10;;;;;;5065767;28;20420;-72
2022/05/02 06:38:54;;;;;;;2.70;2.50;;;16.40;91.90;;;;;;5074003;28;20687;-70
2022/05/02 06:41:58;;;;;;;5.07;2.73;;;16.20;90.70;;;;;;5073251;28;20402;-71
2022/05/02 06:44:42;;;;;;;2.90;2.60;;;17.40;91.80;;;;;;5073739;28;20879;-71
2022/05/02 06:47:35;;;;;;;3.70;2.03;;;18.00;91.00;;;;;;5073701;28;20757;-71
2022/05/02 06:50:05;;;;;;;1.90;1.77;;;19.00;88.40;;;;;;5073740;28;20434;-70
2022/05/02 06:52:33;;;;;;;3.03;2.13;;;17.80;81.30;;;;;;5073473;28;20437;-71
2022/05/02 06:55:25;;;;;;;2.20;2.00;;;17.70;81.00;;;;;;5055830;28;20476;-71
2022/05/02 06:58:35;;;;;;;2.00;1.53;;;18.20;81.00;;;;;;5069143;28;20486;-69
2022/05/02 07:01:30;;;;;;;1.67;1.57;;;19.00;77.30;;;;;;5009185;28;20782;-70
2022/05/02 07:04:04;;;;;;;2.97;2.30;;;18.60;76.60;;;;;;5053618;28;20413;-72
2022/05/02 07:07:01;;;;;;;2.83;2.40;;;19.00;73.60;;;;;;5056047;28;20911;-70
2022/05/02 07:10:02;;;;;;;2.77;1.77;;;18.20;75.80;;;;;;5065817;28;20435;-71
2022/05/02 07:12:31;;;;;;;2.80;2.50;;;19.10;77.70;;;;;;5066417;28;20418;-72
2022/05/02 07:15:09;;;;;;;2.27;2.07;;;19.50;74.00;;;;;;5073443;28;20507;-72
2022/05/02 07:17:43;;;;;;;2.17;1.57;;;19.30;74.10;;;;;;5072966;28;20444;-70
2022/05/02 07:20:17;;;;;;;5.83;1.83;;;18.80;71.70;;;;;;5073144;28;20401;-72
2022/05/02 07:22:44;;;;;;;2.13;1.93;;;19.30;77.00;;;;;;5073385;28;20405;-71
2022/05/02 07:25:14;;;;;;;2.57;2.20;;;18.70;74.20;;;;;;5072733;28;20909;-72
2022/05/02 07:27:40;;;;;;;2.80;2.60;;;19.20;75.20;;;;;;5072825;28;20896;-71
2022/05/02 07:30:06;;;;;;;2.40;1.57;;;20.10;76.40;;;;;;5072976;28;20492;-71
2022/05/02 07:32:33;;;;;;;2.20;1.83;;;21.20;73.70;;;;;;5072543;28;20771;-72
2022/05/02 07:34:59;;;;;;;4.00;1.87;;;19.90;72.00;;;;;;5072655;28;20849;-70
2022/05/02 07:37:25;;;;;;;3.00;1.90;;;19.70;73.80;;;;;;5072646;28;20722;-71
2022/05/02 07:39:51;;;;;;;1.90;1.80;;;20.00;70.60;;;;;;5072626;28;20417;-71
2022/05/02 07:42:19;;;;;;;2.40;1.90;;;20.80;70.60;;;;;;5072567;28;20168;-71
2022/05/02 07:44:47;;;;;;;2.60;2.07;;;19.80;72.30;;;;;;5072353;28;20905;-71
2022/05/02 07:47:15;;;;;;;3.03;2.20;;;19.40;72.50;;;;;;5072368;28;20410;-71
2022/05/02 07:49:46;;;;;;;1.93;1.73;;;20.00;73.90;;;;;;5072352;28;20394;-71
2022/05/02 07:52:21;;;;;;;2.10;1.90;;;20.10;71.40;;;;;;5072236;28;20910;-71
2022/05/02 07:54:46;;;;;;;2.13;1.90;;;19.70;71.70;;;;;;5053387;28;20422;-71
2022/05/02 07:57:14;;;;;;;2.53;1.93;;;20.10;73.20;;;;;;5072322;28;20426;-71
2022/05/02 07:59:41;;;;;;;2.90;1.80;;;20.60;71.50;;;;;;5072069;28;20191;-69
2022/05/02 08:02:07;;;;;;;3.37;1.70;;;20.90;69.30;;;;;;5072131;28;20908;-71
2022/05/02 08:04:36;;;;;;;1.90;1.70;;;21.10;70.00;;;;;;5071824;28;20406;-69
2022/05/02 08:07:11;;;;;;;1.90;1.80;;;21.40;68.20;;;;;;5071790;28;20478;-70
2022/05/02 08:09:56;;;;;;;1.73;1.63;;;22.00;67.40;;;;;;5071904;28;20410;-70
2022/05/02 08:12:28;;;;;;;2.40;2.00;;;21.00;67.10;;;;;;5071665;28;20412;-70
2022/05/02 08:15:12;;;;;;;5.10;2.37;;;21.10;68.00;;;;;;5071636;28;20921;-70
2022/05/02 08:18:23;;;;;;;3.37;2.07;;;20.90;67.00;;;;;;5071553;28;20444;-70
2022/05/02 08:20:56;;;;;;;1.63;1.53;;;20.00;68.70;;;;;;5071770;28;20888;-70
2022/05/02 08:29:48;;;;;;;2.13;1.93;;;20.90;69.20;;;;;;5071864;28;20435;-71
2022/05/02 08:32:33;;;;;;;2.00;1.87;;;21.90;68.20;;;;;;5071536;28;20404;-70
2022/05/02 08:35:36;;;;;;;3.70;2.20;;;20.60;69.10;;;;;;5071355;28;20784;-70
2022/05/02 08:38:15;;;;;;;2.23;1.87;;;20.70;69.70;;;;;;5071292;28;20411;-70
2022/05/02 08:41:06;;;;;;;2.93;2.00;;;20.60;71.30;;;;;;5071299;28;20537;-70
2022/05/02 08:43:57;;;;;;;2.90;1.67;;;21.10;67.70;;;;;;5071121;28;20395;-70
2022/05/02 08:46:41;;;;;;;2.30;2.10;;;20.10;70.00;;;;;;5062938;28;20396;-70
2022/05/02 08:49:33;;;;;;;4.67;2.00;;;20.60;70.10;;;;;;5071206;28;20471;-70
2022/05/02 08:52:08;;;;;;;2.03;1.93;;;20.50;69.30;;;;;;5071213;28;20491;-70
2022/05/02 08:54:58;;;;;;;2.27;1.60;;;20.70;69.20;;;;;;5070995;28;20821;-70
2022/05/02 08:57:50;;;;;;;2.70;1.90;;;21.00;69.20;;;;;;5071100;28;20430;-70
2022/05/02 09:00:39;;;;;;;2.23;2.00;;;21.90;66.30;;;;;;5071025;28;20983;-70
2022/05/02 09:03:18;;;;;;;2.57;2.37;;;21.50;66.30;;;;;;5071038;28;20756;-70
2022/05/02 09:06:18;;;;;;;1.90;1.43;;;20.10;67.80;;;;;;5073410;28;20942;-72
2022/05/02 09:09:03;;;;;;;2.10;1.90;;;20.20;69.60;;;;;;5051119;28;20454;-71
2022/05/02 09:11:34;;;;;;;1.80;1.70;;;20.40;71.00;;;;;;5066397;28;20403;-70
2022/05/02 09:14:12;;;;;;;4.07;1.80;;;20.60;68.00;;;;;;5071079;28;20459;-70
2022/05/02 09:17:06;;;;;;;1.73;1.43;;;20.80;68.20;;;;;;5070888;28;20396;-70
2022/05/02 09:20:09;;;;;;;1.60;1.50;;;21.10;67.40;;;;;;5051969;28;21032;-72
2022/05/02 09:22:55;;;;;;;1.30;1.20;;;20.70;70.00;;;;;;5051761;28;20423;-72
2022/05/02 09:25:54;;;;;;;2.13;2.03;;;22.80;64.00;;;;;;5052046;28;20492;-70
2022/05/02 09:28:21;;;;;;;1.53;1.33;;;22.00;63.30;;;;;;5051405;28;20424;-70
2022/05/02 09:31:30;;;;;;;2.30;1.93;;;20.50;67.60;;;;;;5064019;28;20409;-71
2022/05/02 09:34:18;;;;;;;1.93;1.77;;;20.80;66.80;;;;;;5091274;28;20571;-72
2022/05/02 09:36:46;;;;;;;2.10;1.90;;;20.20;67.50;;;;;;5073365;28;20550;-71
2022/05/02 09:39:22;;;;;;;2.10;1.67;;;20.80;66.10;;;;;;5084584;28;20466;-71
2022/05/02 09:42:10;;;;;;;2.23;2.10;;;20.20;68.30;;;;;;5071078;28;20419;-71
2022/05/02 09:51:35;;;;;;;2.67;2.20;;;20.20;66.20;;;;;;5055300;28;20410;-71
2022/05/02 09:54:07;;;;;;;3.83;2.77;;;19.90;67.30;;;;;;5070699;28;20454;-71
2022/05/02 09:56:43;;;;;;;2.30;2.00;;;19.80;67.60;;;;;;5070961;28;20487;-72
2022/05/02 09:59:21;;;;;;;6.00;2.37;;;19.50;68.90;;;;;;5070771;28;20788;-71
2022/05/02 10:01:50;;;;;;;2.10;1.90;;;19.20;70.50;;;;;;5071068;28;20492;-71
2022/05/02 10:04:35;;;;;;;4.80;2.50;;;18.70;70.30;;;;;;5071062;28;20407;-71
2022/05/02 10:07:09;;;;;;;2.90;1.77;;;17.40;72.90;;;;;;5060276;28;20416;-71
2022/05/02 10:09:53;;;;;;;3.07;2.50;;;18.10;74.50;;;;;;5050674;28;20409;-70
2022/05/02 10:12:48;;;;;;;2.50;2.17;;;19.20;70.50;;;;;;5032547;28;21008;-71
2022/05/02 10:15:38;;;;;;;4.43;2.50;;;18.60;72.40;;;;;;5050512;28;20473;-70
2022/05/02 10:18:21;;;;;;;3.07;2.10;;;19.30;70.20;;;;;;5061779;28;20448;-71
2022/05/02 10:21:09;;;;;;;2.47;2.27;;;19.40;69.20;;;;;;5074643;28;20428;-70
2022/05/02 10:23:46;;;;;;;2.90;2.70;;;19.30;69.20;;;;;;5068487;28;20499;-70
2022/05/02 10:26:25;;;;;;;4.40;3.03;;;18.60;71.40;;;;;;5074284;28;20409;-70
2022/05/02 10:29:02;;;;;;;2.90;2.10;;;18.70;71.80;;;;;;5074180;28;20415;-71
2022/05/02 10:31:38;;;;;;;4.33;1.83;;;19.50;72.60;;;;;;5074184;28;20431;-71
2022/05/02 10:34:04;;;;;;;2.80;2.43;;;19.90;72.20;;;;;;5074110;28;20494;-71
2022/05/02 10:36:37;;;;;;;3.40;2.60;;;20.10;71.50;;;;;;5074130;28;20437;-70
2022/05/02 10:39:15;;;;;;;2.13;1.93;;;19.50;71.60;;;;;;5073970;28;20889;-70
2022/05/02 10:41:47;;;;;;;4.53;2.40;;;19.10;71.60;;;;;;5073836;28;20401;-71
2022/05/02 10:44:16;;;;;;;3.40;3.10;;;19.30;73.20;;;;;;5073640;28;20432;-70
2022/05/02 10:46:44;;;;;;;3.00;2.13;;;19.80;69.70;;;;;;5074027;28;20412;-71
2022/05/02 10:49:29;;;;;;;3.23;2.30;;;19.90;70.80;;;;;;5074168;28;20439;-71
2022/05/02 10:52:20;;;;;;;3.70;2.87;;;19.60;71.90;;;;;;5073814;28;20764;-68
2022/05/02 10:54:55;;;;;;;2.20;1.77;;;19.60;71.90;;;;;;5073442;28;20548;-71
2022/05/02 10:57:30;;;;;;;2.97;2.70;;;20.10;72.10;;;;;;5073554;28;20437;-70
2022/05/02 11:00:03;;;;;;;2.33;2.13;;;20.00;70.40;;;;;;5073446;28;20845;-70
2022/05/02 11:02:50;;;;;;;8.50;5.60;;;20.10;70.80;;;;;;5073468;28;20402;-70
2022/05/02 11:05:21;;;;;;;4.13;3.77;;;19.20;72.60;;;;;;5073259;28;20412;-70
2022/05/02 11:08:06;;;;;;;3.43;3.13;;;19.80;69.90;;;;;;5056552;28;20430;-71
2022/05/02 11:10:50;;;;;;;3.17;2.87;;;19.70;71.00;;;;;;5060655;28;20930;-71
2022/05/02 11:13:40;;;;;;;4.93;3.10;;;19.90;70.90;;;;;;5073201;28;20510;-71
2022/05/02 11:16:35;;;;;;;4.20;3.33;;;20.10;71.80;;;;;;5073139;28;20403;-70
2022/05/02 11:22:19;;;;;;;2.40;2.20;;;20.30;67.40;;;;;;5064657;28;20402;-71
2022/05/02 11:25:11;;;;;;;2.33;2.13;;;20.50;68.10;;;;;;5073188;28;20399;-71
2022/05/02 11:28:14;;;;;;;3.20;2.90;;;19.70;69.30;;;;;;5072581;28;20505;-70
2022/05/02 11:30:47;;;;;;;2.63;2.43;;;19.90;69.00;;;;;;5072913;28;20411;-72
2022/05/02 11:33:17;;;;;;;9.00;6.60;;;20.00;69.10;;;;;;5072841;28;20441;-71
2022/05/02 11:35:47;;;;;;;5.10;2.80;;;20.20;70.00;;;;;;5072740;28;20465;-70
2022/05/02 11:39:10;;;;;;;5.90;5.10;;;20.70;68.70;;;;;;5072706;28;20419;-71
2022/05/02 11:41:43;;;;;;;8.67;5.80;;;20.60;68.50;;;;;;4991132;28;20422;-72
2022/05/02 11:44:13;;;;;;;4.03;3.37;;;20.60;68.50;;;;;;4991088;28;20505;-71
2022/05/02 11:47:10;;;;;;;3.73;2.90;;;20.50;69.00;;;;;;5034758;28;20444;-71
2022/05/02 11:50:01;;;;;;;3.63;3.27;;;20.70;67.20;;;;;;5072680;28;20411;-72
2022/05/02 11:52:36;;;;;;;2.73;2.30;;;20.20;67.70;;;;;;5072565;28;20880;-71
2022/05/02 11:55:06;;;;;;;2.80;2.50;;;20.30;67.70;;;;;;5072305;28;20781;-71
2022/05/02 11:57:48;;;;;;;3.70;2.53;;;20.10;67.60;;;;;;5072446;28;20421;-70
2022/05/02 12:00:17;;;;;;;3.30;3.00;;;19.60;69.00;;;;;;5054240;28;20415;-70
2022/05/02 12:02:56;;;;;;;4.23;2.97;;;20.50;69.50;;;;;;5072816;28;20955;-70
2022/05/02 12:05:38;;;;;;;2.63;2.37;;;20.70;69.20;;;;;;5054118;28;20873;-71
2022/05/02 12:08:06;;;;;;;2.43;2.23;;;20.30;68.70;;;;;;5071163;28;20496;-71
2022/05/02 12:10:38;;;;;;;4.13;3.07;;;20.50;68.90;;;;;;5072027;28;20818;-72
2022/05/02 12:13:06;;;;;;;3.10;2.57;;;20.10;68.30;;;;;;5071890;28;20452;-70
2022/05/02 12:15:33;;;;;;;6.33;4.27;;;20.40;67.50;;;;;;5071732;28;20493;-73
2022/05/02 12:18:04;;;;;;;7.50;4.40;;;20.50;68.00;;;;;;5071838;28;20755;-72
2022/05/02 12:20:40;;;;;;;5.73;4.73;;;20.70;69.10;;;;;;5071554;28;20943;-70
2022/05/02 12:23:16;;;;;;;6.80;4.40;;;21.10;68.30;;;;;;5071764;28;20408;-71
2022/05/02 12:25:54;;;;;;;3.10;2.53;;;20.50;68.80;;;;;;5071643;28;20406;-70
2022/05/02 12:28:42;;;;;;;3.50;2.87;;;20.20;67.70;;;;;;5071405;28;20437;-71
2022/05/02 12:31:13;;;;;;;3.63;2.97;;;20.30;67.90;;;;;;5054850;28;20405;-70
2022/05/02 12:33:40;;;;;;;3.60;2.63;;;19.40;70.40;;;;;;5071738;28;20540;-71
2022/05/02 12:36:20;;;;;;;3.40;3.10;;;19.70;70.60;;;;;;5072329;28;20402;-70
2022/05/02 12:39:02;;;;;;;2.53;2.07;;;20.20;69.30;;;;;;5072198;28;20425;-70
2022/05/02 12:41:30;;;;;;;4.07;2.40;;;20.30;69.80;;;;;;5073132;28;20735;-70
2022/05/02 12:44:07;;;;;;;2.40;2.20;;;20.40;70.00;;;;;;5072161;28;20434;-70
2022/05/02 12:46:38;;;;;;;1.93;1.83;;;20.80;68.90;;;;;;5071921;28;20409;-70
2022/05/02 12:49:04;;;;;;;4.13;2.83;;;21.60;67.40;;;;;;5071652;28;20418;-69
2022/05/02 12:51:32;;;;;;;4.07;2.20;;;19.90;67.90;;;;;;5071823;28;20916;-69
2022/05/02 12:54:13;;;;;;;2.40;2.13;;;19.90;69.20;;;;;;5071878;28;20877;-70
2022/05/02 13:02:41;;;;;;;2.63;2.43;;;21.30;68.00;;;;;;5051979;28;20806;-71
2022/05/02 13:05:13;;;;;;;5.30;2.20;;;20.40;69.30;;;;;;5052063;28;20403;-70
2022/05/02 13:07:46;;;;;;;2.90;2.17;;;20.80;69.40;;;;;;5053783;28;20799;-71
2022/05/02 13:10:17;;;;;;;14.77;6.20;;;20.60;68.40;;;;;;5056672;28;20404;-71
2022/05/02 13:13:04;;;;;;;13.83;10.10;;;20.50;69.80;;;;;;5071104;28;20926;-71
2022/05/02 13:15:41;;;;;;;3.53;3.20;;;20.90;68.10;;;;;;5083737;28;20890;-71
2022/05/02 13:18:12;;;;;;;11.50;9.73;;;20.80;68.40;;;;;;5071586;28;20578;-70
2022/05/02 13:20:39;;;;;;;7.57;5.13;;;21.10;68.40;;;;;;5072074;28;20430;-71
2022/05/02 13:23:08;;;;;;;2.30;2.10;;;20.90;67.30;;;;;;5071539;28;20422;-70
2022/05/02 13:26:03;;;;;;;3.57;3.20;;;20.40;68.80;;;;;;5071809;28;20406;-71
2022/05/02 13:29:20;;;;;;;3.80;3.00;;;20.60;68.90;;;;;;5071616;28;20438;-70
2022/05/02 13:31:59;;;;;;;2.80;1.90;;;21.00;67.60;;;;;;5071865;28;20405;-70
2022/05/02 13:34:31;;;;;;;2.60;2.40;;;20.60;68.80;;;;;;5071854;28;20454;-71
2022/05/02 13:37:10;;;;;;;2.50;2.30;;;20.20;68.10;;;;;;5071601;28;20452;-70
2022/05/02 13:40:11;;;;;;;2.50;2.30;;;20.00;69.20;;;;;;5071494;28;20397;-71
2022/05/02 13:42:50;;;;;;;3.10;2.40;;;20.10;68.60;;;;;;5071487;28;20896;-70
2022/05/02 13:45:50;;;;;;;2.47;1.90;;;20.30;68.40;;;;;;5071327;28;20447;-71
2022/05/02 13:48:41;;;;;;;2.60;2.40;;;20.80;69.10;;;;;;5071734;28;20425;-71
2022/05/02 13:51:29;;;;;;;2.10;1.83;;;20.70;68.00;;;;;;5071776;28;20543;-70
2022/05/02 13:54:14;;;;;;;2.67;2.17;;;19.90;69.40;;;;;;5075213;28;20535;-70